createdAt,value
2023-03-22T00:00:02.445Z,14.95
2023-03-22T00:00:57.597Z,14.97
2023-03-22T00:01:44.473Z,14.85
2023-03-22T00:02:18.567Z,14.88
2023-03-22T00:03:05.476Z,14.91
2023-03-22T00:03:46.538Z,14.95
2023-03-22T00:04:40.612Z,14.90
2023-03-22T00:05:34.399Z,14.81
2023-03-22T00:06:29.454Z,14.89
2023-03-22T00:07:23.419Z,14.86
2023-03-22T00:08:17.420Z,14.75
2023-03-22T00:09:04.437Z,14.83
2023-03-22T00:09:38.515Z,14.89
2023-03-22T00:10:26.410Z,14.83
2023-03-22T00:11:00.580Z,14.76
2023-03-22T00:11:47.408Z,14.81
2023-03-22T00:12:21.488Z,14.78
2023-03-22T00:13:08.419Z,14.66
2023-03-22T00:13:43.929Z,14.72
2023-03-22T00:14:25.479Z,14.61
2023-03-22T00:15:07.509Z,14.68
2023-03-22T00:15:51.487Z,14.70
2023-03-22T00:16:31.557Z,14.65
2023-03-22T00:17:12.407Z,14.56
2023-03-22T00:17:52.505Z,14.63
2023-03-22T00:18:34.408Z,14.52
2023-03-22T00:19:14.476Z,14.48
2023-03-22T00:19:55.570Z,14.49
2023-03-22T00:20:39.387Z,14.47
2023-03-22T00:21:22.400Z,14.57
2023-03-22T00:22:06.022Z,14.44
2023-03-22T00:22:47.407Z,14.56
2023-03-22T00:23:30.552Z,14.61
2023-03-22T00:24:11.382Z,14.45
2023-03-22T00:24:51.489Z,14.63
2023-03-22T00:25:32.404Z,14.54
2023-03-22T00:26:13.538Z,14.53
2023-03-22T00:26:54.411Z,14.48
2023-03-22T00:27:34.525Z,14.51
2023-03-22T00:28:14.408Z,14.49
2023-03-22T00:28:54.512Z,14.34
2023-03-22T00:29:36.387Z,14.51
2023-03-22T00:30:17.484Z,14.44
2023-03-22T00:31:06.501Z,14.46
2023-03-22T00:31:49.058Z,14.43
2023-03-22T00:32:29.374Z,14.46
2023-03-22T00:33:09.491Z,14.48
2023-03-22T00:33:49.397Z,14.49
2023-03-22T00:34:29.500Z,14.50
2023-03-22T00:35:11.392Z,14.47
2023-03-22T00:36:00.541Z,14.51
2023-03-22T00:36:40.396Z,14.36
2023-03-22T00:37:21.572Z,14.44
2023-03-22T00:38:02.370Z,14.46
2023-03-22T00:38:43.973Z,14.50
2023-03-22T00:39:25.396Z,14.50
2023-03-22T00:40:05.533Z,14.44
2023-03-22T00:40:46.385Z,14.43
2023-03-22T00:41:29.555Z,14.26
2023-03-22T00:42:12.393Z,14.33
2023-03-22T00:42:52.519Z,14.44
2023-03-22T00:43:33.372Z,14.46
2023-03-22T00:44:13.528Z,14.47
2023-03-22T00:44:53.372Z,14.43
2023-03-22T00:45:36.225Z,14.35
2023-03-22T00:46:18.448Z,14.37
2023-03-22T00:46:58.526Z,14.46
2023-03-22T00:47:39.408Z,14.44
2023-03-22T00:48:19.606Z,14.51
2023-03-22T00:48:59.364Z,14.49
2023-03-22T00:49:39.486Z,14.50
2023-03-22T00:50:19.380Z,14.48
2023-03-22T00:50:59.510Z,14.41
2023-03-22T00:51:40.383Z,14.47
2023-03-22T00:52:21.585Z,14.30
2023-03-22T00:53:01.399Z,14.40
2023-03-22T00:53:43.488Z,14.31
2023-03-22T00:54:24.369Z,14.38
2023-03-22T00:55:19.397Z,14.27
2023-03-22T00:56:13.393Z,14.30
2023-03-22T00:57:07.397Z,14.34
2023-03-22T00:58:01.376Z,14.37
2023-03-22T00:58:56.426Z,14.40
2023-03-22T00:59:50.371Z,14.34
2023-03-22T01:00:44.480Z,14.41
2023-03-22T01:01:39.378Z,14.41
2023-03-22T01:02:36.371Z,14.44
2023-03-22T01:03:24.434Z,14.35
2023-03-22T01:03:58.533Z,14.28
2023-03-22T01:04:52.353Z,14.33
2023-03-22T01:05:28.386Z,14.27
2023-03-22T01:06:16.359Z,14.33
2023-03-22T01:06:51.481Z,14.31
2023-03-22T01:07:38.354Z,14.33
2023-03-22T01:08:14.861Z,14.30
2023-03-22T01:08:57.450Z,14.21
2023-03-22T01:09:38.475Z,14.28
2023-03-22T01:10:19.340Z,14.33
2023-03-22T01:10:59.458Z,14.31
2023-03-22T01:11:39.349Z,14.27
2023-03-22T01:12:19.477Z,14.35
2023-03-22T01:13:00.365Z,14.39
2023-03-22T01:13:42.447Z,14.43
2023-03-22T01:14:23.389Z,14.42
2023-03-22T01:15:03.475Z,14.40
2023-03-22T01:15:44.370Z,14.40
2023-03-22T01:16:25.526Z,14.44
2023-03-22T01:17:05.343Z,14.29
2023-03-22T01:17:45.519Z,14.17
2023-03-22T01:18:25.384Z,14.26
2023-03-22T01:19:06.451Z,14.03
2023-03-22T01:19:47.379Z,14.20
2023-03-22T01:20:27.452Z,14.17
2023-03-22T01:21:08.340Z,14.23
2023-03-22T01:21:49.436Z,14.30
2023-03-22T01:22:30.335Z,14.35
2023-03-22T01:23:10.460Z,14.39
2023-03-22T01:23:50.341Z,14.35
2023-03-22T01:24:30.478Z,14.34
2023-03-22T01:25:11.412Z,14.36
2023-03-22T01:25:51.524Z,14.35
2023-03-22T01:26:31.335Z,14.31
2023-03-22T01:27:11.853Z,14.26
2023-03-22T01:27:52.350Z,14.26
2023-03-22T01:28:32.488Z,14.15
2023-03-22T01:29:13.343Z,14.17
2023-03-22T01:29:53.455Z,14.19
2023-03-22T01:30:33.357Z,13.90
2023-03-22T01:31:14.474Z,14.18
2023-03-22T01:31:55.371Z,14.02
2023-03-22T01:32:35.631Z,14.07
2023-03-22T01:33:16.322Z,13.95
2023-03-22T01:33:56.450Z,14.15
2023-03-22T01:34:37.349Z,14.19
2023-03-22T01:35:17.431Z,14.08
2023-03-22T01:35:58.416Z,14.19
2023-03-22T01:36:39.417Z,13.97
2023-03-22T01:37:19.312Z,13.89
2023-03-22T01:37:59.446Z,14.00
2023-03-22T01:38:39.332Z,13.98
2023-03-22T01:39:19.472Z,14.05
2023-03-22T01:40:01.355Z,13.97
2023-03-22T01:40:41.788Z,13.97
2023-03-22T01:41:23.336Z,13.78
2023-03-22T01:42:03.504Z,13.96
2023-03-22T01:42:43.346Z,14.07
2023-03-22T01:43:24.410Z,14.03
2023-03-22T01:44:26.345Z,14.10
2023-03-22T01:45:21.423Z,14.09
2023-03-22T01:46:02.448Z,14.01
2023-03-22T01:46:43.346Z,13.86
2023-03-22T01:47:18.412Z,13.89
2023-03-22T01:48:11.383Z,13.92
2023-03-22T01:48:49.447Z,14.01
2023-03-22T01:49:40.314Z,13.93
2023-03-22T01:50:15.468Z,13.98
2023-03-22T01:51:15.321Z,13.85
2023-03-22T01:51:57.348Z,13.85
2023-03-22T01:52:51.341Z,13.87
2023-03-22T01:53:53.312Z,13.90
2023-03-22T01:54:58.313Z,13.86
2023-03-22T01:55:52.325Z,13.88
2023-03-22T01:56:50.301Z,13.95
2023-03-22T01:57:31.349Z,13.96
2023-03-22T01:58:11.459Z,13.89
2023-03-22T01:58:52.328Z,13.86
2023-03-22T01:59:33.438Z,13.85
2023-03-22T02:00:20.359Z,13.86
2023-03-22T02:01:02.765Z,13.86
2023-03-22T02:01:43.368Z,13.84
2023-03-22T02:02:24.703Z,13.86
2023-03-22T02:03:05.366Z,13.70
2023-03-22T02:04:13.519Z,13.72
2023-03-22T02:04:57.318Z,13.75
2023-03-22T02:05:38.395Z,13.76
2023-03-22T02:06:19.301Z,13.73
2023-03-22T02:07:00.465Z,13.74
2023-03-22T02:07:41.303Z,13.69
2023-03-22T02:08:21.328Z,13.72
2023-03-22T02:08:57.872Z,13.62
2023-03-22T02:09:48.299Z,13.83
2023-03-22T02:10:29.412Z,13.89
2023-03-22T02:11:36.312Z,13.81
2023-03-22T02:12:22.412Z,13.91
2023-03-22T02:13:55.356Z,13.77
2023-03-22T02:15:30.467Z,13.82
2023-03-22T02:16:43.300Z,13.80
2023-03-22T02:17:51.298Z,13.87
2023-03-22T02:19:20.317Z,13.93
2023-03-22T02:20:38.554Z,13.88
2023-03-22T02:21:54.282Z,13.98
2023-03-22T02:23:00.414Z,14.01
2023-03-22T02:24:14.326Z,14.05
2023-03-22T02:25:46.356Z,13.97
2023-03-22T02:27:17.286Z,13.93
2023-03-22T02:28:26.272Z,13.88
2023-03-22T02:29:47.305Z,13.91
2023-03-22T02:31:05.438Z,13.96
2023-03-22T02:32:24.279Z,13.97
2023-03-22T02:33:18.310Z,13.81
2023-03-22T02:34:46.277Z,13.84
2023-03-22T02:36:03.276Z,13.82
2023-03-22T02:37:25.278Z,13.85
2023-03-22T02:39:01.493Z,13.91
2023-03-22T02:40:02.286Z,13.87
2023-03-22T02:41:14.306Z,13.96
2023-03-22T02:42:55.302Z,13.87
2023-03-22T02:44:24.310Z,13.81
2023-03-22T02:45:34.287Z,14.06
2023-03-22T02:46:49.367Z,14.03
2023-03-22T02:47:49.334Z,14.11
2023-03-22T02:49:14.292Z,14.07
2023-03-22T02:50:32.272Z,14.15
2023-03-22T02:51:31.287Z,14.17
2023-03-22T02:52:26.305Z,14.15
2023-03-22T02:53:32.357Z,14.09
2023-03-22T02:54:28.262Z,14.15
2023-03-22T02:55:23.357Z,14.21
2023-03-22T02:56:12.257Z,14.11
2023-03-22T02:57:18.377Z,14.14
2023-03-22T02:58:21.328Z,14.17
2023-03-22T02:59:06.195Z,14.26
2023-03-22T02:59:48.246Z,14.26
2023-03-22T03:00:28.407Z,14.29
2023-03-22T03:01:15.300Z,14.27
2023-03-22T03:01:59.345Z,14.31
2023-03-22T03:02:40.253Z,14.22
2023-03-22T03:03:28.279Z,14.17
2023-03-22T03:04:28.261Z,14.25
2023-03-22T03:05:23.288Z,14.24
2023-03-22T03:06:28.313Z,14.35
2023-03-22T03:07:25.240Z,14.39
2023-03-22T03:08:20.235Z,14.38
2023-03-22T03:09:01.278Z,14.34
2023-03-22T03:09:44.365Z,14.28
2023-03-22T03:10:25.249Z,14.34
2023-03-22T03:11:05.516Z,14.36
2023-03-22T03:11:46.253Z,14.17
2023-03-22T03:12:32.366Z,14.27
2023-03-22T03:13:13.234Z,14.38
2023-03-22T03:13:56.759Z,14.41
2023-03-22T03:14:38.303Z,14.45
2023-03-22T03:15:25.858Z,14.45
2023-03-22T03:16:08.390Z,14.43
2023-03-22T03:16:48.477Z,14.46
2023-03-22T03:17:51.263Z,14.49
2023-03-22T03:18:38.426Z,14.50
2023-03-22T03:19:29.230Z,14.49
2023-03-22T03:20:41.432Z,14.42
2023-03-22T03:21:55.771Z,14.45
2023-03-22T03:22:53.236Z,14.37
2023-03-22T03:24:16.355Z,14.37
2023-03-22T03:25:24.239Z,14.30
2023-03-22T03:26:22.260Z,14.38
2023-03-22T03:27:29.219Z,14.16
2023-03-22T03:28:50.251Z,14.11
2023-03-22T03:29:55.243Z,14.04
2023-03-22T03:31:07.226Z,13.93
2023-03-22T03:32:08.268Z,13.90
2023-03-22T03:33:03.312Z,13.97
2023-03-22T03:33:58.208Z,14.07
2023-03-22T03:34:55.535Z,13.97
2023-03-22T03:35:46.268Z,14.01
2023-03-22T03:36:27.326Z,14.15
2023-03-22T03:37:42.306Z,14.09
2023-03-22T03:38:28.359Z,14.09
2023-03-22T03:39:09.209Z,14.06
2023-03-22T03:39:58.308Z,14.16
2023-03-22T03:40:41.450Z,14.07
2023-03-22T03:41:29.441Z,13.94
2023-03-22T03:42:10.225Z,13.96
2023-03-22T03:43:05.251Z,14.11
2023-03-22T03:44:00.222Z,14.19
2023-03-22T03:44:54.222Z,14.03
2023-03-22T03:45:50.497Z,14.12
2023-03-22T03:46:44.322Z,14.22
2023-03-22T03:47:39.227Z,14.23
2023-03-22T03:48:31.244Z,14.11
2023-03-22T03:49:05.333Z,14.12
2023-03-22T03:49:52.203Z,14.05
2023-03-22T03:50:26.316Z,13.90
2023-03-22T03:51:14.256Z,13.94
2023-03-22T03:52:00.344Z,14.03
2023-03-22T03:52:47.198Z,13.86
2023-03-22T03:53:21.327Z,13.85
2023-03-22T03:54:02.219Z,13.97
2023-03-22T03:54:42.751Z,13.75
2023-03-22T03:55:23.398Z,13.75
2023-03-22T03:56:04.306Z,13.75
2023-03-22T03:56:45.199Z,13.81
2023-03-22T03:57:25.322Z,13.82
2023-03-22T03:58:05.207Z,13.53
2023-03-22T03:58:45.517Z,13.62
2023-03-22T03:59:27.253Z,13.54
2023-03-22T04:00:07.295Z,13.52
2023-03-22T04:00:48.179Z,13.66
2023-03-22T04:01:28.530Z,13.76
2023-03-22T04:02:09.232Z,13.56
2023-03-22T04:02:50.440Z,13.69
2023-03-22T04:03:30.206Z,13.55
2023-03-22T04:04:10.330Z,13.61
2023-03-22T04:04:51.232Z,13.66
2023-03-22T04:05:46.199Z,13.54
2023-03-22T04:06:41.275Z,13.56
2023-03-22T04:07:35.224Z,13.58
2023-03-22T04:08:29.204Z,13.42
2023-03-22T04:09:24.199Z,13.61
2023-03-22T04:10:12.225Z,13.54
2023-03-22T04:10:46.277Z,13.55
2023-03-22T04:11:33.190Z,13.45
2023-03-22T04:12:09.642Z,13.57
2023-03-22T04:12:57.175Z,13.51
2023-03-22T04:13:31.324Z,13.62
2023-03-22T04:14:18.202Z,13.51
2023-03-22T04:14:52.295Z,13.48
2023-03-22T04:15:33.254Z,13.49
2023-03-22T04:16:14.312Z,13.34
2023-03-22T04:16:55.278Z,13.42
2023-03-22T04:17:38.008Z,13.51
2023-03-22T04:18:18.176Z,13.51
2023-03-22T04:18:58.343Z,13.46
2023-03-22T04:19:39.184Z,13.46
2023-03-22T04:20:20.927Z,13.41
2023-03-22T04:21:03.204Z,13.43
2023-03-22T04:21:44.336Z,13.53
2023-03-22T04:22:25.198Z,13.59
2023-03-22T04:23:05.306Z,13.53
2023-03-22T04:23:46.178Z,13.38
2023-03-22T04:24:28.278Z,13.43
2023-03-22T04:25:08.192Z,13.65
2023-03-22T04:25:50.147Z,13.57
2023-03-22T04:26:31.190Z,13.68
2023-03-22T04:27:11.289Z,13.47
2023-03-22T04:27:57.176Z,13.42
2023-03-22T04:28:37.371Z,13.33
2023-03-22T04:29:18.203Z,13.23
2023-03-22T04:30:00.912Z,13.25
2023-03-22T04:30:42.661Z,13.16
2023-03-22T04:31:23.304Z,12.96
2023-03-22T04:32:03.184Z,13.02
2023-03-22T04:32:44.270Z,13.10
2023-03-22T04:33:26.180Z,13.06
2023-03-22T04:34:06.289Z,13.03
2023-03-22T04:34:47.182Z,13.01
2023-03-22T04:35:27.380Z,13.18
2023-03-22T04:36:07.172Z,13.09
2023-03-22T04:36:47.320Z,13.05
2023-03-22T04:37:31.184Z,13.17
2023-03-22T04:38:12.007Z,13.11
2023-03-22T04:38:53.156Z,13.15
2023-03-22T04:39:33.242Z,13.12
2023-03-22T04:40:15.174Z,12.94
2023-03-22T04:40:55.307Z,13.18
2023-03-22T04:41:36.185Z,13.06
2023-03-22T04:42:17.256Z,13.13
2023-03-22T04:42:58.200Z,12.97
2023-03-22T04:43:39.327Z,13.16
2023-03-22T04:44:19.179Z,12.90
2023-03-22T04:44:59.546Z,12.96
2023-03-22T04:45:41.145Z,12.89
2023-03-22T04:46:21.857Z,13.10
2023-03-22T04:47:02.175Z,13.15
2023-03-22T04:47:42.301Z,13.25
2023-03-22T04:48:24.223Z,13.34
2023-03-22T04:49:04.260Z,13.29
2023-03-22T04:49:45.168Z,13.20
2023-03-22T04:50:28.155Z,13.28
2023-03-22T04:51:10.172Z,13.32
2023-03-22T04:51:50.308Z,13.24
2023-03-22T04:52:30.134Z,13.30
2023-03-22T04:53:12.345Z,13.38
2023-03-22T04:53:53.207Z,13.38
2023-03-22T04:54:34.246Z,13.01
2023-03-22T04:55:15.154Z,13.14
2023-03-22T04:55:58.015Z,13.34
2023-03-22T04:56:39.153Z,13.22
2023-03-22T04:57:19.234Z,13.18
2023-03-22T04:58:01.136Z,13.16
2023-03-22T04:58:44.309Z,13.16
2023-03-22T04:59:27.215Z,13.22
2023-03-22T05:00:08.557Z,13.20
2023-03-22T05:00:48.176Z,13.29
2023-03-22T05:01:28.312Z,13.31
2023-03-22T05:02:08.168Z,13.21
2023-03-22T05:02:49.466Z,13.22
2023-03-22T05:03:30.130Z,13.31
2023-03-22T05:04:11.766Z,13.39
2023-03-22T05:04:53.153Z,13.52
2023-03-22T05:05:26.990Z,13.46
2023-03-22T05:06:18.161Z,13.48
2023-03-22T05:06:51.980Z,13.47
2023-03-22T05:07:39.169Z,13.46
2023-03-22T05:08:14.306Z,13.46
2023-03-22T05:09:03.144Z,13.47
2023-03-22T05:09:37.016Z,13.39
2023-03-22T05:10:18.177Z,13.48
2023-03-22T05:10:52.238Z,13.50
2023-03-22T05:11:27.958Z,13.52
2023-03-22T05:12:08.158Z,13.53
2023-03-22T05:12:42.257Z,13.60
2023-03-22T05:13:16.038Z,13.54
2023-03-22T05:13:57.146Z,13.41
2023-03-22T05:14:31.280Z,13.43
2023-03-22T05:15:06.961Z,13.52
2023-03-22T05:15:48.225Z,13.50
2023-03-22T05:16:22.231Z,13.58
2023-03-22T05:16:56.024Z,13.40
2023-03-22T05:17:37.132Z,13.52
2023-03-22T05:18:11.224Z,13.50
2023-03-22T05:18:45.479Z,13.50
2023-03-22T05:19:29.132Z,13.40
2023-03-22T05:20:10.160Z,13.41
2023-03-22T05:20:44.120Z,13.50
2023-03-22T05:21:28.155Z,13.50
2023-03-22T05:22:02.272Z,13.40
2023-03-22T05:22:40.585Z,13.50
2023-03-22T05:23:25.132Z,13.38
2023-03-22T05:23:59.280Z,13.46
2023-03-22T05:24:32.938Z,13.42
2023-03-22T05:25:16.181Z,13.35
2023-03-22T05:25:50.306Z,13.41
2023-03-22T05:26:26.416Z,13.41
2023-03-22T05:27:10.173Z,13.49
2023-03-22T05:27:44.273Z,13.48
2023-03-22T05:28:21.380Z,13.33
2023-03-22T05:29:02.193Z,13.31
2023-03-22T05:29:36.918Z,13.21
2023-03-22T05:30:11.494Z,13.37
2023-03-22T05:30:52.149Z,13.29
2023-03-22T05:31:28.674Z,13.23
2023-03-22T05:32:04.249Z,13.37
2023-03-22T05:32:49.153Z,13.21
2023-03-22T05:33:23.289Z,13.35
2023-03-22T05:33:57.317Z,13.40
2023-03-22T05:34:42.154Z,13.39
2023-03-22T05:35:17.323Z,13.34
2023-03-22T05:35:51.238Z,13.43
2023-03-22T05:36:31.147Z,13.44
2023-03-22T05:37:05.213Z,13.46
2023-03-22T05:37:38.914Z,13.50
2023-03-22T05:38:20.150Z,13.63
2023-03-22T05:38:54.292Z,13.64
2023-03-22T05:39:28.964Z,13.65
2023-03-22T05:40:16.124Z,13.60
2023-03-22T05:40:51.304Z,13.55
2023-03-22T05:41:25.279Z,13.52
2023-03-22T05:42:06.135Z,13.59
2023-03-22T05:42:40.301Z,13.46
2023-03-22T05:43:15.541Z,13.38
2023-03-22T05:43:57.137Z,13.48
2023-03-22T05:44:31.319Z,13.53
2023-03-22T05:45:05.790Z,13.43
2023-03-22T05:45:47.181Z,13.35
2023-03-22T05:46:21.353Z,13.26
2023-03-22T05:46:55.024Z,13.42
2023-03-22T05:47:36.152Z,13.46
2023-03-22T05:48:11.295Z,13.50
2023-03-22T05:48:44.977Z,13.50
2023-03-22T05:49:25.130Z,13.50
2023-03-22T05:49:59.263Z,13.49
2023-03-22T05:50:33.413Z,13.50
2023-03-22T05:51:24.113Z,13.42
2023-03-22T05:51:58.259Z,13.47
2023-03-22T05:52:32.588Z,13.33
2023-03-22T05:53:13.122Z,13.43
2023-03-22T05:53:47.304Z,13.40
2023-03-22T05:54:21.271Z,13.35
2023-03-22T05:55:02.160Z,13.21
2023-03-22T05:55:36.235Z,13.29
2023-03-22T05:56:11.342Z,13.33
2023-03-22T05:56:54.028Z,13.47
2023-03-22T05:57:30.083Z,13.43
2023-03-22T05:58:05.043Z,13.47
2023-03-22T05:58:46.144Z,13.45
2023-03-22T05:59:20.361Z,13.39
2023-03-22T05:59:54.949Z,13.54
2023-03-22T06:00:38.375Z,13.50
2023-03-22T06:01:16.433Z,13.50
2023-03-22T06:01:51.157Z,13.52
2023-03-22T06:02:33.118Z,13.61
2023-03-22T06:03:08.187Z,13.53
2023-03-22T06:03:42.414Z,13.66
2023-03-22T06:04:23.118Z,13.68
2023-03-22T06:04:57.284Z,13.68
2023-03-22T06:05:31.928Z,13.65
2023-03-22T06:06:17.132Z,13.59
2023-03-22T06:06:51.448Z,13.61
2023-03-22T06:07:25.372Z,13.69
2023-03-22T06:08:06.142Z,13.63
2023-03-22T06:08:40.412Z,13.51
2023-03-22T06:09:17.515Z,13.59
2023-03-22T06:09:59.087Z,13.56
2023-03-22T06:10:33.225Z,13.64
2023-03-22T06:11:07.815Z,13.63
2023-03-22T06:11:49.115Z,13.65
2023-03-22T06:12:27.201Z,13.67
2023-03-22T06:13:01.954Z,13.40
2023-03-22T06:13:44.121Z,13.54
2023-03-22T06:14:18.238Z,13.46
2023-03-22T06:14:52.490Z,13.57
2023-03-22T06:15:32.110Z,13.45
2023-03-22T06:16:08.340Z,13.55
2023-03-22T06:16:42.026Z,13.51
2023-03-22T06:17:23.143Z,13.44
2023-03-22T06:17:57.240Z,13.46
2023-03-22T06:18:31.579Z,13.46
2023-03-22T06:19:12.166Z,13.55
2023-03-22T06:19:46.234Z,13.40
2023-03-22T06:20:20.944Z,13.54
2023-03-22T06:21:01.108Z,13.48
2023-03-22T06:21:35.346Z,13.49
2023-03-22T06:22:08.889Z,13.47
2023-03-22T06:22:50.094Z,13.45
2023-03-22T06:23:24.198Z,13.41
2023-03-22T06:23:58.937Z,13.53
2023-03-22T06:24:40.097Z,13.43
2023-03-22T06:25:16.391Z,13.53
2023-03-22T06:25:50.010Z,13.52
2023-03-22T06:26:31.153Z,13.59
2023-03-22T06:27:05.552Z,13.52
2023-03-22T06:27:40.194Z,13.69
2023-03-22T06:28:21.116Z,13.58
2023-03-22T06:28:55.215Z,13.75
2023-03-22T06:29:28.931Z,13.72
2023-03-22T06:30:10.048Z,13.63
2023-03-22T06:30:51.252Z,13.72
2023-03-22T06:31:31.101Z,13.82
2023-03-22T06:32:12.189Z,13.69
2023-03-22T06:32:52.076Z,13.71
2023-03-22T06:33:39.099Z,13.85
2023-03-22T06:34:12.868Z,13.86
2023-03-22T06:35:00.087Z,13.81
2023-03-22T06:35:34.666Z,13.79
2023-03-22T06:36:23.085Z,13.83
2023-03-22T06:36:57.045Z,13.94
2023-03-22T06:37:44.066Z,13.92
2023-03-22T06:38:17.882Z,13.93
2023-03-22T06:39:05.150Z,13.84
2023-03-22T06:39:38.886Z,13.87
2023-03-22T06:40:27.052Z,13.88
2023-03-22T06:41:00.981Z,13.96
2023-03-22T06:41:49.103Z,14.07
2023-03-22T06:42:22.884Z,14.11
2023-03-22T06:43:10.063Z,14.16
2023-03-22T06:43:43.986Z,14.19
2023-03-22T06:44:32.099Z,14.23
2023-03-22T06:45:07.997Z,14.09
2023-03-22T06:45:55.098Z,14.14
2023-03-22T06:46:29.057Z,14.16
2023-03-22T06:47:18.112Z,14.29
2023-03-22T06:47:51.996Z,14.30
2023-03-22T06:48:40.064Z,14.36
2023-03-22T06:49:13.952Z,14.35
2023-03-22T06:49:54.086Z,14.37
2023-03-22T06:50:28.192Z,14.39
2023-03-22T06:51:01.938Z,14.37
2023-03-22T06:51:43.061Z,14.35
2023-03-22T06:52:17.154Z,14.38
2023-03-22T06:52:52.006Z,14.40
2023-03-22T06:53:33.108Z,14.38
2023-03-22T06:54:07.205Z,14.48
2023-03-22T06:54:40.881Z,14.52
2023-03-22T06:55:22.043Z,14.59
2023-03-22T06:55:56.136Z,14.47
2023-03-22T06:56:29.809Z,14.58
2023-03-22T06:57:11.067Z,14.48
2023-03-22T06:57:45.181Z,14.48
2023-03-22T06:58:19.074Z,14.63
2023-03-22T06:59:01.071Z,14.66
2023-03-22T06:59:35.181Z,14.60
2023-03-22T07:00:10.058Z,14.44
2023-03-22T07:00:51.082Z,14.62
2023-03-22T07:01:26.512Z,14.47
2023-03-22T07:02:01.115Z,14.54
2023-03-22T07:02:43.034Z,14.42
2023-03-22T07:03:17.179Z,14.51
2023-03-22T07:03:51.089Z,14.47
2023-03-22T07:04:32.077Z,14.45
2023-03-22T07:05:06.172Z,14.57
2023-03-22T07:05:39.846Z,14.65
2023-03-22T07:06:21.076Z,14.67
2023-03-22T07:06:55.309Z,14.59
2023-03-22T07:07:28.784Z,14.66
2023-03-22T07:08:10.032Z,14.56
2023-03-22T07:08:44.171Z,14.63
2023-03-22T07:09:18.129Z,14.65
2023-03-22T07:10:00.059Z,14.74
2023-03-22T07:10:34.166Z,14.66
2023-03-22T07:11:08.166Z,14.69
2023-03-22T07:11:49.060Z,14.63
2023-03-22T07:12:23.143Z,14.56
2023-03-22T07:12:57.285Z,14.47
2023-03-22T07:13:38.052Z,14.61
2023-03-22T07:14:12.133Z,14.52
2023-03-22T07:14:45.872Z,14.52
2023-03-22T07:15:31.064Z,14.68
2023-03-22T07:16:07.191Z,14.65
2023-03-22T07:16:41.858Z,14.60
2023-03-22T07:17:22.052Z,14.58
2023-03-22T07:17:56.137Z,14.46
2023-03-22T07:18:30.688Z,14.63
2023-03-22T07:19:12.032Z,14.54
2023-03-22T07:19:46.168Z,14.61
2023-03-22T07:20:23.023Z,14.59
2023-03-22T07:21:04.032Z,14.59
2023-03-22T07:21:38.453Z,14.40
2023-03-22T07:22:12.841Z,14.35
2023-03-22T07:22:54.091Z,14.39
2023-03-22T07:23:28.109Z,14.54
2023-03-22T07:24:03.362Z,14.42
2023-03-22T07:24:55.686Z,14.55
2023-03-22T07:25:31.142Z,14.35
2023-03-22T07:26:05.964Z,14.43
2023-03-22T07:26:47.042Z,14.41
2023-03-22T07:27:21.745Z,14.31
2023-03-22T07:28:03.026Z,14.25
2023-03-22T07:28:44.634Z,14.17
2023-03-22T07:29:25.051Z,14.21
2023-03-22T07:30:05.751Z,14.39
2023-03-22T07:30:48.028Z,14.51
2023-03-22T07:31:29.444Z,14.48
2023-03-22T07:32:10.092Z,14.34
2023-03-22T07:32:50.362Z,14.24
2023-03-22T07:33:31.036Z,14.31
2023-03-22T07:34:12.128Z,14.43
2023-03-22T07:34:53.032Z,14.29
2023-03-22T07:35:34.136Z,14.42
2023-03-22T07:36:17.067Z,14.38
2023-03-22T07:36:57.191Z,14.39
2023-03-22T07:37:44.028Z,14.26
2023-03-22T07:38:18.973Z,14.15
2023-03-22T07:39:00.040Z,14.23
2023-03-22T07:39:41.092Z,14.20
2023-03-22T07:40:22.075Z,14.18
2023-03-22T07:41:02.139Z,14.19
2023-03-22T07:41:43.009Z,14.13
2023-03-22T07:42:23.166Z,14.13
2023-03-22T07:43:05.038Z,14.31
2023-03-22T07:43:55.264Z,14.26
2023-03-22T07:44:39.079Z,14.17
2023-03-22T07:45:19.199Z,14.37
2023-03-22T07:46:00.034Z,14.44
2023-03-22T07:46:40.285Z,14.38
2023-03-22T07:47:37.705Z,14.51
2023-03-22T07:48:22.092Z,14.61
2023-03-22T07:49:04.027Z,14.58
2023-03-22T07:49:51.046Z,14.50
2023-03-22T07:50:45.013Z,14.67
2023-03-22T07:51:39.031Z,14.63
2023-03-22T07:52:32.997Z,14.70
2023-03-22T07:53:27.988Z,14.63
2023-03-22T07:54:32.963Z,14.74
2023-03-22T07:55:17.086Z,14.66
2023-03-22T07:55:57.090Z,14.70
2023-03-22T07:56:38.010Z,14.85
2023-03-22T07:57:18.114Z,14.86
2023-03-22T07:57:59.000Z,14.94
2023-03-22T07:58:40.274Z,14.98
2023-03-22T07:59:24.002Z,14.90
2023-03-22T08:00:04.732Z,14.92
2023-03-22T08:00:45.035Z,14.88
2023-03-22T08:01:26.673Z,15.11
2023-03-22T08:02:08.050Z,15.15
2023-03-22T08:02:48.159Z,15.19
2023-03-22T08:03:29.076Z,15.26
2023-03-22T08:04:09.124Z,15.30
2023-03-22T08:04:51.821Z,15.21
2023-03-22T08:05:33.599Z,15.25
2023-03-22T08:06:15.001Z,15.46
2023-03-22T08:06:58.534Z,15.46
2023-03-22T08:07:40.170Z,15.50
2023-03-22T08:08:20.903Z,15.34
2023-03-22T08:09:02.013Z,15.35
2023-03-22T08:09:44.373Z,15.28
2023-03-22T08:10:25.009Z,15.36
2023-03-22T08:11:05.174Z,15.24
2023-03-22T08:11:46.031Z,15.40
2023-03-22T08:12:27.975Z,15.33
2023-03-22T08:13:08.981Z,15.17
2023-03-22T08:13:49.109Z,15.30
2023-03-22T08:14:36.248Z,15.31
2023-03-22T08:15:18.116Z,15.45
2023-03-22T08:15:59.069Z,15.50
2023-03-22T08:16:39.276Z,15.59
2023-03-22T08:17:19.013Z,15.52
2023-03-22T08:17:59.126Z,15.54
2023-03-22T08:18:39.984Z,15.63
2023-03-22T08:19:20.066Z,15.45
2023-03-22T08:20:03.983Z,15.42
2023-03-22T08:20:45.631Z,15.43
2023-03-22T08:21:27.068Z,15.48
2023-03-22T08:22:08.104Z,15.41
2023-03-22T08:22:48.996Z,15.57
2023-03-22T08:23:40.974Z,15.63
2023-03-22T08:24:23.100Z,15.60
2023-03-22T08:25:03.163Z,15.61
2023-03-22T08:25:43.954Z,15.56
2023-03-22T08:26:24.131Z,15.60
2023-03-22T08:27:05.176Z,15.48
2023-03-22T08:27:45.818Z,15.38
2023-03-22T08:28:27.041Z,15.30
2023-03-22T08:29:07.471Z,15.44
2023-03-22T08:29:48.969Z,15.40
2023-03-22T08:30:29.156Z,15.47
2023-03-22T08:31:17.153Z,15.28
2023-03-22T08:32:02.112Z,15.39
2023-03-22T08:32:42.976Z,15.23
2023-03-22T08:33:23.734Z,15.24
2023-03-22T08:34:05.000Z,15.34
2023-03-22T08:34:47.093Z,15.34
2023-03-22T08:35:28.969Z,15.37
2023-03-22T08:36:19.149Z,15.42
2023-03-22T08:36:59.958Z,15.34
2023-03-22T08:37:40.570Z,15.50
2023-03-22T08:38:21.969Z,15.53
2023-03-22T08:39:02.069Z,15.48
2023-03-22T08:39:42.979Z,15.41
2023-03-22T08:40:23.147Z,15.56
2023-03-22T08:41:03.980Z,15.43
2023-03-22T08:41:46.095Z,15.39
2023-03-22T08:42:27.988Z,15.44
2023-03-22T08:43:08.116Z,15.48
2023-03-22T08:43:48.972Z,15.37
2023-03-22T08:44:29.095Z,15.51
2023-03-22T08:45:11.016Z,15.55
2023-03-22T08:45:51.149Z,15.49
2023-03-22T08:46:31.994Z,15.57
2023-03-22T08:47:12.090Z,15.56
2023-03-22T08:47:52.995Z,15.64
2023-03-22T08:48:33.855Z,15.79
2023-03-22T08:49:16.997Z,15.79
2023-03-22T08:49:57.114Z,15.76
2023-03-22T08:50:40.964Z,15.73
2023-03-22T08:51:21.358Z,15.80
2023-03-22T08:52:01.960Z,15.71
2023-03-22T08:52:42.035Z,15.74
2023-03-22T08:53:22.950Z,15.72
2023-03-22T08:54:04.452Z,15.85
2023-03-22T08:54:44.985Z,15.76
2023-03-22T08:55:25.080Z,15.80
2023-03-22T08:56:07.979Z,15.68
2023-03-22T08:56:48.320Z,15.69
2023-03-22T08:57:29.946Z,15.78
2023-03-22T08:58:11.240Z,15.70
2023-03-22T08:58:52.939Z,15.77
2023-03-22T08:59:33.083Z,16.03
2023-03-22T09:00:17.000Z,15.95
2023-03-22T09:00:57.357Z,15.96
2023-03-22T09:01:38.150Z,15.85
2023-03-22T09:02:43.688Z,15.90
2023-03-22T09:03:31.954Z,15.88
2023-03-22T09:04:05.841Z,15.84
2023-03-22T09:04:53.059Z,15.88
2023-03-22T09:05:27.034Z,15.86
2023-03-22T09:06:13.963Z,15.82
2023-03-22T09:06:53.982Z,15.97
2023-03-22T09:07:35.226Z,15.92
2023-03-22T09:08:19.285Z,15.75
2023-03-22T09:09:01.095Z,15.93
2023-03-22T09:09:40.931Z,15.99
2023-03-22T09:10:21.108Z,15.82
2023-03-22T09:11:00.912Z,16.06
2023-03-22T09:11:42.811Z,16.12
2023-03-22T09:12:22.932Z,16.05
2023-03-22T09:13:04.165Z,16.02
2023-03-22T09:13:43.992Z,16.15
2023-03-22T09:14:24.096Z,16.20
2023-03-22T09:15:03.930Z,16.29
2023-03-22T09:15:45.238Z,16.37
2023-03-22T09:16:26.066Z,16.36
2023-03-22T09:17:06.021Z,16.45
2023-03-22T09:17:45.933Z,16.27
2023-03-22T09:18:26.180Z,16.34